CYFB

Iqaluit

Airport
ICAO code
CYFB
Summary
ICAO Region
NAM
ICAO Territory
Location

Iqaluit, Nunavut,

Coordinates
63° 45' 16" N , 68° 33' 1" W
KCC
Airport CFIT
Altimeter Temperature Error Correction
Airport WX
Low Level Turbulence
Metar
Observation
CYFB 280331Z 32019G25KT 1/2SM R34/1600V2000FT/N -SN BLSN VV005 M18/M20 A2959 RMK BLSN8 SLP028
Station
Iqaluit, N. W. T.
Date/Time
2022-11-28 03:31:00
Wind direction
320°
Wind speed
19 kts
Lowest cloud amount
n/a
Temperature
34°C
Dew point
16°C
Humidity
34%
Weather condition
n/a

Description

Airport serving Iqaluit, Nunavut.

Climatology

Tundra climate (Köppen climate classification ET) - warmest month has an average temperature of 0 - 10 degrees C.

Runways

Designator Length Width Surface Rops
17/35 2623 61 ASP Yes/Yes

Airport map

Aerial View

SKYbrary Partners:

Safety knowledge contributed by: